Time;durP1;ratioP1;P1;durP2;ratioP2;P2;SDS_P1;SDS_P2;PMS_P1;PMS_P2;Temp;Humidity;BMP_temperature;BMP_pressure;BME280_temperature;BME280_humidity;BME280_pressure;Samples;Min_cycle;Max_cycle;Signal;HPM_P1;HPM_P2
2023/05/27 00:01:20;;;;;;;5.82;1.70;;;10.10;99.90;;;;;;5003522;28;20069;-72
2023/05/27 00:03:46;;;;;;;2.55;1.55;;;10.10;99.90;;;;;;5003024;28;20112;-72
2023/05/27 00:06:12;;;;;;;3.05;1.25;;;10.10;99.90;;;;;;5002384;28;20049;-72
2023/05/27 00:08:37;;;;;;;5.57;1.38;;;10.10;99.90;;;;;;5002910;28;20046;-72
2023/05/27 00:11:03;;;;;;;3.00;1.52;;;10.10;99.90;;;;;;5002559;28;20101;-72
2023/05/27 00:13:29;;;;;;;1.73;1.35;;;10.10;99.90;;;;;;4984765;28;20133;-72
2023/05/27 00:15:55;;;;;;;2.95;1.02;;;10.00;99.90;;;;;;5003377;28;20455;-72
2023/05/27 00:18:21;;;;;;;4.95;1.20;;;10.10;99.90;;;;;;5003182;28;20072;-72
2023/05/27 00:20:46;;;;;;;8.15;1.05;;;10.10;99.90;;;;;;5003130;28;20476;-72
2023/05/27 00:23:12;;;;;;;2.58;1.33;;;10.10;99.90;;;;;;5001397;28;20048;-72
2023/05/27 00:25:38;;;;;;;4.55;1.20;;;10.10;99.90;;;;;;5003038;28;20128;-72
2023/05/27 00:28:03;;;;;;;2.55;0.82;;;10.10;99.90;;;;;;5000736;28;20505;-72
2023/05/27 00:30:29;;;;;;;8.02;1.48;;;10.10;99.90;;;;;;5000426;28;20052;-72
2023/05/27 00:32:55;;;;;;;2.95;1.45;;;10.10;99.90;;;;;;4984423;28;20038;-72
2023/05/27 00:35:20;;;;;;;5.65;1.63;;;10.10;99.90;;;;;;5002667;28;20041;-72
2023/05/27 00:37:46;;;;;;;4.30;1.70;;;10.10;99.90;;;;;;5003151;28;20042;-72
2023/05/27 00:40:15;;;;;;;4.80;1.73;;;10.10;99.90;;;;;;5002796;28;20129;-72
2023/05/27 00:42:40;;;;;;;8.68;1.55;;;10.00;99.90;;;;;;5002421;28;20042;-72
2023/05/27 00:45:07;;;;;;;6.72;1.40;;;10.00;99.90;;;;;;5001253;28;20041;-72
2023/05/27 00:47:33;;;;;;;2.28;1.02;;;9.90;99.90;;;;;;4984582;28;20501;-72
2023/05/27 00:49:59;;;;;;;3.42;1.70;;;10.00;99.90;;;;;;5002872;28;20120;-72
2023/05/27 00:52:25;;;;;;;3.97;1.40;;;9.90;99.90;;;;;;5002858;28;20140;-72
2023/05/27 00:54:53;;;;;;;3.45;0.90;;;9.90;99.90;;;;;;5003267;28;20038;-72
2023/05/27 00:57:19;;;;;;;1.33;1.23;;;9.90;99.90;;;;;;5002661;28;20038;-72
2023/05/27 00:59:45;;;;;;;5.90;1.73;;;9.90;99.90;;;;;;5003324;28;20053;-72
2023/05/27 01:02:10;;;;;;;7.43;2.15;;;9.90;99.90;;;;;;5006398;28;20497;-72
2023/05/27 01:04:36;;;;;;;3.80;1.30;;;9.90;99.90;;;;;;5083837;23;20064;-72
2023/05/27 01:07:51;;;;;;;5.57;1.67;;;9.90;99.90;;;;;;5006059;28;20038;-72
2023/05/27 01:10:40;;;;;;;5.72;1.55;;;9.80;99.90;;;;;;4966672;28;20046;-71
2023/05/27 01:13:35;;;;;;;2.90;1.25;;;9.80;99.90;;;;;;4986196;28;20057;-72
2023/05/27 01:16:05;;;;;;;5.78;1.52;;;9.80;99.90;;;;;;4986781;28;20038;-71
2023/05/27 01:18:33;;;;;;;2.33;1.35;;;9.70;99.90;;;;;;4986554;28;20046;-72
2023/05/27 01:21:07;;;;;;;4.63;1.00;;;9.70;99.90;;;;;;4986839;28;20497;-72
2023/05/27 01:23:33;;;;;;;6.60;2.03;;;9.70;99.90;;;;;;4996543;28;20045;-72
2023/05/27 01:25:59;;;;;;;4.07;1.50;;;9.70;99.90;;;;;;4992212;28;20046;-72
2023/05/27 01:28:24;;;;;;;2.30;1.70;;;9.70;99.90;;;;;;5002333;28;20077;-72
2023/05/27 01:30:54;;;;;;;7.53;2.00;;;9.70;99.90;;;;;;5006110;28;20073;-72
2023/05/27 01:33:27;;;;;;;5.60;1.13;;;9.60;99.90;;;;;;5005806;28;20675;-72
2023/05/27 01:36:04;;;;;;;4.85;1.73;;;9.60;99.90;;;;;;5004972;28;20543;-71
2023/05/27 01:38:32;;;;;;;2.65;1.20;;;9.60;99.90;;;;;;5003543;28;20554;-72
2023/05/27 01:40:59;;;;;;;5.22;1.77;;;9.60;99.90;;;;;;4993728;28;20056;-72
2023/05/27 01:43:25;;;;;;;1.70;1.60;;;9.60;99.90;;;;;;5001189;28;20050;-71
2023/05/27 01:45:51;;;;;;;4.15;1.10;;;9.60;99.90;;;;;;5002996;28;20046;-71
2023/05/27 01:48:19;;;;;;;4.22;2.75;;;9.50;99.90;;;;;;4986010;28;20053;-72
2023/05/27 01:50:44;;;;;;;2.60;1.67;;;9.50;99.90;;;;;;5003411;28;20104;-71
2023/05/27 01:53:11;;;;;;;2.20;1.23;;;9.50;99.90;;;;;;5004411;28;20046;-72
2023/05/27 01:55:37;;;;;;;2.53;1.52;;;9.50;99.90;;;;;;5004481;28;20461;-72
2023/05/27 01:58:03;;;;;;;7.22;2.42;;;9.50;99.90;;;;;;5003093;28;20050;-72
2023/05/27 02:00:29;;;;;;;5.18;1.00;;;9.50;99.90;;;;;;5003663;28;20088;-72
2023/05/27 02:02:55;;;;;;;3.80;1.85;;;9.40;99.90;;;;;;5005333;28;20099;-72
2023/05/27 02:05:21;;;;;;;3.35;1.20;;;9.50;99.90;;;;;;5005759;28;20488;-72
2023/05/27 02:07:46;;;;;;;6.28;2.25;;;9.50;99.90;;;;;;5003787;28;20042;-72
2023/05/27 02:10:12;;;;;;;5.25;1.50;;;9.40;99.90;;;;;;5002952;28;20050;-72
2023/05/27 02:12:37;;;;;;;1.40;1.13;;;9.50;99.90;;;;;;5004661;28;20038;-72
2023/05/27 02:15:03;;;;;;;7.35;1.25;;;9.40;99.90;;;;;;5003726;28;20046;-72
2023/05/27 02:17:29;;;;;;;3.15;1.63;;;9.50;99.90;;;;;;5003749;28;20455;-72
2023/05/27 02:19:55;;;;;;;2.70;1.48;;;9.40;99.90;;;;;;5003408;28;20069;-72
2023/05/27 02:22:22;;;;;;;5.38;1.60;;;9.40;99.90;;;;;;5004985;28;20057;-72
2023/05/27 02:24:48;;;;;;;6.70;1.80;;;9.40;99.90;;;;;;5004407;28;20550;-72
2023/05/27 02:27:13;;;;;;;7.28;1.85;;;9.40;99.90;;;;;;5004634;28;20046;-72
2023/05/27 02:29:39;;;;;;;5.38;1.42;;;9.40;99.90;;;;;;5003694;28;20046;-72
2023/05/27 02:32:05;;;;;;;2.92;1.00;;;9.30;99.90;;;;;;5004734;28;20129;-72
2023/05/27 02:34:31;;;;;;;1.70;1.30;;;9.30;99.90;;;;;;5004345;28;20436;-72
2023/05/27 02:36:57;;;;;;;4.70;1.45;;;9.30;99.90;;;;;;5004438;28;20093;-72
2023/05/27 02:39:22;;;;;;;4.18;1.20;;;9.40;99.90;;;;;;5004880;28;20042;-71
2023/05/27 02:41:48;;;;;;;3.90;1.42;;;9.40;99.90;;;;;;5004443;28;20114;-72
2023/05/27 02:44:13;;;;;;;4.13;1.20;;;9.30;99.90;;;;;;5003641;28;20504;-72
2023/05/27 02:46:39;;;;;;;5.90;1.65;;;9.40;99.90;;;;;;4992443;28;20089;-72
2023/05/27 02:49:05;;;;;;;3.95;1.27;;;9.30;99.90;;;;;;5004801;28;20053;-71
2023/05/27 02:51:30;;;;;;;4.45;1.67;;;9.30;99.90;;;;;;5003755;28;20034;-72
2023/05/27 02:53:56;;;;;;;1.85;1.30;;;9.30;99.90;;;;;;5004205;28;20056;-72
2023/05/27 02:56:22;;;;;;;8.95;1.40;;;9.30;99.90;;;;;;5003449;28;20130;-71
2023/05/27 02:58:47;;;;;;;4.60;2.05;;;9.30;99.90;;;;;;5003092;28;20080;-71
2023/05/27 03:01:13;;;;;;;6.90;1.20;;;9.30;99.90;;;;;;5002879;28;20133;-72
2023/05/27 03:03:38;;;;;;;5.35;1.50;;;9.30;99.90;;;;;;4996966;28;20039;-72
2023/05/27 03:06:04;;;;;;;0.85;0.60;;;9.30;99.90;;;;;;4991922;28;20042;-72
2023/05/27 03:08:30;;;;;;;4.32;1.35;;;9.30;99.90;;;;;;4992117;28;20042;-72
2023/05/27 03:10:56;;;;;;;4.47;1.10;;;9.40;99.90;;;;;;4982485;28;20053;-72
2023/05/27 03:13:22;;;;;;;2.00;1.45;;;9.30;99.90;;;;;;5001437;28;20034;-72
2023/05/27 03:15:48;;;;;;;4.82;1.58;;;9.40;99.90;;;;;;5002396;28;20099;-72
2023/05/27 03:18:14;;;;;;;7.32;1.00;;;9.30;99.90;;;;;;5002538;28;20085;-72
2023/05/27 03:20:39;;;;;;;0.90;0.85;;;9.30;99.90;;;;;;5003676;28;20084;-71
2023/05/27 03:23:05;;;;;;;3.97;1.52;;;9.30;99.90;;;;;;5003832;28;20049;-72
2023/05/27 03:25:30;;;;;;;1.92;1.48;;;9.30;99.90;;;;;;5002169;28;20068;-72
2023/05/27 03:27:56;;;;;;;4.70;2.00;;;9.30;99.90;;;;;;5003245;28;20046;-72
2023/05/27 03:30:21;;;;;;;1.45;1.35;;;9.20;99.90;;;;;;5003760;28;20428;-72
2023/05/27 03:32:47;;;;;;;2.53;1.67;;;9.20;99.90;;;;;;5003712;28;20049;-71
2023/05/27 03:35:13;;;;;;;2.20;1.15;;;9.20;99.90;;;;;;5002222;28;20153;-72
2023/05/27 03:37:38;;;;;;;4.47;1.08;;;9.30;99.90;;;;;;5001813;28;20042;-71
2023/05/27 03:40:05;;;;;;;8.43;1.60;;;9.20;99.90;;;;;;5003196;28;20089;-72
2023/05/27 03:42:31;;;;;;;6.03;1.50;;;9.20;99.90;;;;;;5000999;28;20134;-72
2023/05/27 03:44:57;;;;;;;4.75;1.50;;;9.20;99.90;;;;;;5003603;28;20042;-72
2023/05/27 03:47:22;;;;;;;2.65;1.63;;;9.20;99.90;;;;;;5004299;28;20038;-72
2023/05/27 03:49:48;;;;;;;4.03;0.90;;;9.20;99.90;;;;;;5002968;28;20042;-72
2023/05/27 03:52:14;;;;;;;2.70;1.73;;;9.20;99.90;;;;;;5003524;28;20049;-72
2023/05/27 03:54:41;;;;;;;2.10;1.27;;;9.20;99.90;;;;;;5003119;28;20046;-72
2023/05/27 03:57:07;;;;;;;4.68;1.67;;;9.10;99.90;;;;;;5003392;28;20041;-72
2023/05/27 03:59:33;;;;;;;3.92;2.15;;;9.10;99.90;;;;;;5002088;28;20647;-72
2023/05/27 04:01:59;;;;;;;5.82;1.55;;;9.20;99.90;;;;;;5002972;28;20046;-72
2023/05/27 04:04:24;;;;;;;4.82;1.50;;;9.10;99.90;;;;;;5003520;28;20054;-72
2023/05/27 04:06:50;;;;;;;8.05;2.20;;;9.10;99.90;;;;;;5002824;28;20092;-71
2023/05/27 04:09:15;;;;;;;1.77;0.80;;;9.10;99.90;;;;;;5003578;28;20050;-72
2023/05/27 04:11:41;;;;;;;1.38;1.27;;;9.10;99.90;;;;;;5002939;28;20040;-72
2023/05/27 04:14:07;;;;;;;2.25;1.33;;;9.10;99.90;;;;;;5001304;28;20054;-72
2023/05/27 04:16:33;;;;;;;4.47;1.75;;;9.10;99.90;;;;;;5002949;28;20034;-72
2023/05/27 04:19:00;;;;;;;1.45;1.10;;;9.10;99.90;;;;;;5002939;28;20538;-72
2023/05/27 04:21:26;;;;;;;3.45;2.90;;;9.10;99.90;;;;;;5003302;28;20041;-72
2023/05/27 04:23:51;;;;;;;3.05;1.23;;;9.10;99.90;;;;;;5003355;28;20540;-71
2023/05/27 04:26:18;;;;;;;3.65;1.63;;;9.10;99.90;;;;;;5002827;28;20050;-71
2023/05/27 04:28:45;;;;;;;2.22;1.15;;;9.10;99.90;;;;;;5002316;28;20050;-72
2023/05/27 04:31:12;;;;;;;3.33;1.33;;;9.10;99.90;;;;;;5003263;28;20050;-72
2023/05/27 04:33:41;;;;;;;3.03;1.15;;;9.20;99.90;;;;;;5006378;28;20034;-72
2023/05/27 04:36:07;;;;;;;8.18;1.85;;;9.20;99.90;;;;;;5006802;28;20080;-72
2023/05/27 04:38:33;;;;;;;3.05;1.23;;;9.20;99.90;;;;;;5005071;28;20141;-72
2023/05/27 04:40:59;;;;;;;4.30;1.75;;;9.20;99.90;;;;;;5006850;28;20692;-72
2023/05/27 04:43:26;;;;;;;3.50;1.73;;;9.20;99.90;;;;;;5006047;28;20092;-71
2023/05/27 04:45:52;;;;;;;3.03;1.42;;;9.20;99.90;;;;;;5007231;28;20054;-71
2023/05/27 04:48:19;;;;;;;4.57;1.58;;;9.20;99.90;;;;;;5006315;28;20046;-72
2023/05/27 04:50:45;;;;;;;8.00;2.15;;;9.30;99.90;;;;;;5006736;28;20056;-71
2023/05/27 04:53:11;;;;;;;2.72;1.42;;;9.30;99.90;;;;;;5004720;28;20435;-72
2023/05/27 04:55:38;;;;;;;3.28;1.73;;;9.30;99.90;;;;;;5006048;28;20423;-72
2023/05/27 04:58:05;;;;;;;4.72;1.65;;;9.40;99.90;;;;;;5005580;28;20121;-72
2023/05/27 05:00:49;;;;;;;3.65;1.30;;;9.40;99.90;;;;;;5004898;28;20523;-72
2023/05/27 05:03:20;;;;;;;1.23;1.05;;;9.50;99.90;;;;;;5006334;28;20077;-72
2023/05/27 05:05:52;;;;;;;4.10;1.90;;;9.50;99.90;;;;;;5005973;28;20049;-71
2023/05/27 05:08:19;;;;;;;2.50;1.33;;;9.60;99.90;;;;;;5005702;28;20471;-72
2023/05/27 05:10:47;;;;;;;2.75;1.60;;;9.60;99.90;;;;;;4988132;28;20056;-71
2023/05/27 05:13:13;;;;;;;3.33;1.17;;;9.70;99.90;;;;;;5004412;28;20092;-72
2023/05/27 05:15:40;;;;;;;5.18;1.77;;;9.80;99.90;;;;;;5005693;28;20038;-72
2023/05/27 05:18:05;;;;;;;5.30;1.58;;;9.80;99.90;;;;;;5005835;28;20052;-71
2023/05/27 05:20:31;;;;;;;5.22;1.52;;;9.90;99.90;;;;;;5005666;28;20046;-72
2023/05/27 05:22:58;;;;;;;3.38;1.55;;;10.00;99.90;;;;;;5005571;28;20056;-72
2023/05/27 05:25:23;;;;;;;6.60;1.65;;;10.00;99.90;;;;;;5006398;28;20082;-72
2023/05/27 05:27:49;;;;;;;11.38;2.25;;;10.10;99.90;;;;;;5004442;28;20073;-72
2023/05/27 05:30:14;;;;;;;6.35;1.60;;;10.10;99.90;;;;;;5005930;28;20052;-72
2023/05/27 05:32:40;;;;;;;3.20;1.90;;;10.20;99.90;;;;;;5003271;28;20038;-72
2023/05/27 05:35:06;;;;;;;4.38;1.30;;;10.20;99.90;;;;;;4993563;28;20046;-71
2023/05/27 05:37:31;;;;;;;3.72;1.27;;;10.30;99.90;;;;;;4999545;28;20037;-72
2023/05/27 05:39:57;;;;;;;8.98;2.45;;;10.30;99.90;;;;;;4985295;28;20448;-72
2023/05/27 05:42:24;;;;;;;2.83;2.00;;;10.40;99.90;;;;;;4989785;28;20037;-72
2023/05/27 05:44:51;;;;;;;6.50;1.73;;;10.40;99.90;;;;;;5005338;28;20137;-72
2023/05/27 05:47:17;;;;;;;5.60;2.17;;;10.40;99.90;;;;;;5003875;28;20388;-72
2023/05/27 05:49:43;;;;;;;6.70;1.45;;;10.50;99.90;;;;;;5004666;28;20049;-72
2023/05/27 05:52:08;;;;;;;6.38;2.45;;;10.50;99.90;;;;;;5003980;28;20049;-72
2023/05/27 05:54:34;;;;;;;6.90;2.17;;;10.50;99.90;;;;;;5004978;28;20189;-72
2023/05/27 05:57:00;;;;;;;3.67;1.77;;;10.60;99.90;;;;;;5005002;28;20068;-72
2023/05/27 05:59:26;;;;;;;3.75;1.75;;;10.70;99.90;;;;;;5003967;28;20037;-72
2023/05/27 06:01:52;;;;;;;3.70;2.65;;;10.60;99.90;;;;;;5005270;28;20057;-72
2023/05/27 06:04:17;;;;;;;4.18;1.85;;;10.60;99.90;;;;;;5003706;28;20042;-72
2023/05/27 06:06:43;;;;;;;6.68;2.15;;;10.70;99.90;;;;;;5002515;28;20093;-72
2023/05/27 06:09:09;;;;;;;4.95;2.15;;;10.80;99.90;;;;;;5001111;28;20045;-72
2023/05/27 06:11:34;;;;;;;2.65;1.73;;;10.80;99.90;;;;;;4989408;28;20511;-72
2023/05/27 06:14:00;;;;;;;5.72;3.33;;;10.80;99.90;;;;;;4995586;28;20080;-73
2023/05/27 06:16:25;;;;;;;15.45;3.40;;;10.90;99.90;;;;;;5003272;28;20052;-73
2023/05/27 06:18:51;;;;;;;4.40;1.73;;;10.90;99.90;;;;;;4998126;28;20077;-72
2023/05/27 06:21:17;;;;;;;4.18;1.90;;;10.90;99.90;;;;;;5002102;28;20046;-72
2023/05/27 06:23:43;;;;;;;4.57;3.40;;;10.90;99.90;;;;;;5003788;28;20084;-72
2023/05/27 06:26:08;;;;;;;2.97;1.90;;;10.90;99.90;;;;;;4986166;28;20112;-72
2023/05/27 06:28:34;;;;;;;3.92;2.28;;;11.00;99.90;;;;;;4982978;28;20050;-72
2023/05/27 06:31:00;;;;;;;4.85;2.85;;;11.00;99.90;;;;;;4985111;28;20080;-72
2023/05/27 06:33:25;;;;;;;5.43;3.03;;;11.00;99.90;;;;;;5000813;28;20045;-73
2023/05/27 06:35:51;;;;;;;2.95;2.20;;;11.00;99.90;;;;;;5004267;28;20049;-73
2023/05/27 06:38:17;;;;;;;8.85;2.17;;;11.00;99.90;;;;;;4994095;28;20544;-72
2023/05/27 06:40:42;;;;;;;5.22;2.17;;;11.10;99.90;;;;;;4994783;28;20041;-72
2023/05/27 06:43:08;;;;;;;5.10;1.77;;;11.10;99.90;;;;;;4977968;28;20053;-72
2023/05/27 06:45:33;;;;;;;4.78;1.90;;;11.20;99.90;;;;;;4997107;28;20044;-72
2023/05/27 06:47:59;;;;;;;8.60;2.22;;;11.20;99.90;;;;;;5002930;28;20470;-72
2023/05/27 06:50:25;;;;;;;9.43;2.45;;;11.30;99.90;;;;;;5004128;28;20095;-72
2023/05/27 06:52:51;;;;;;;6.50;2.28;;;11.30;99.90;;;;;;5003802;28;20045;-72
2023/05/27 06:55:18;;;;;;;7.82;3.05;;;11.30;99.90;;;;;;5002890;28;20450;-70
2023/05/27 06:57:43;;;;;;;4.68;2.42;;;11.30;99.90;;;;;;4997179;28;20068;-71
2023/05/27 07:00:09;;;;;;;5.13;2.20;;;11.40;99.90;;;;;;5001561;28;20042;-72
2023/05/27 07:02:35;;;;;;;4.68;2.22;;;11.40;99.90;;;;;;5000652;28;20050;-72
2023/05/27 07:05:00;;;;;;;2.78;1.35;;;11.50;99.90;;;;;;4961471;28;1059704;-72
2023/05/27 07:07:26;;;;;;;7.97;3.05;;;11.50;99.90;;;;;;5001360;28;20034;-74
2023/05/27 07:09:52;;;;;;;2.78;1.63;;;11.50;99.90;;;;;;5003669;28;20038;-73
2023/05/27 07:12:20;;;;;;;6.43;1.98;;;11.60;99.90;;;;;;5003266;28;20046;-72
2023/05/27 07:14:45;;;;;;;6.68;2.95;;;11.60;99.90;;;;;;4997044;28;20053;-72
2023/05/27 07:17:11;;;;;;;4.35;2.53;;;11.60;99.90;;;;;;5000094;28;20044;-72
2023/05/27 07:19:37;;;;;;;2.78;1.50;;;11.70;99.90;;;;;;5001830;28;20203;-72
2023/05/27 07:22:03;;;;;;;4.32;1.65;;;11.70;99.90;;;;;;5001911;28;20061;-73
2023/05/27 07:24:29;;;;;;;9.73;2.30;;;11.80;99.90;;;;;;5001929;28;20033;-73
2023/05/27 07:26:54;;;;;;;7.15;2.25;;;11.80;99.90;;;;;;5002156;28;20054;-73
2023/05/27 07:29:20;;;;;;;2.65;1.45;;;11.90;99.90;;;;;;4986255;28;20046;-72
2023/05/27 07:31:46;;;;;;;11.10;2.35;;;12.00;99.90;;;;;;4986999;28;20527;-72
2023/05/27 07:34:12;;;;;;;5.18;2.00;;;12.00;99.90;;;;;;4994677;28;20089;-72
2023/05/27 07:36:38;;;;;;;8.90;2.17;;;12.00;99.90;;;;;;5001139;28;20487;-72
2023/05/27 07:39:03;;;;;;;4.30;1.85;;;12.10;99.90;;;;;;5002706;28;20052;-72
2023/05/27 07:41:29;;;;;;;6.78;1.50;;;12.00;99.90;;;;;;4993805;28;20065;-72
2023/05/27 07:43:56;;;;;;;4.10;1.42;;;12.10;99.90;;;;;;4980669;28;20417;-72
2023/05/27 07:46:21;;;;;;;7.65;2.20;;;12.10;99.90;;;;;;4995074;28;20396;-72
2023/05/27 07:48:47;;;;;;;10.10;2.25;;;12.10;99.90;;;;;;5001817;28;20038;-72
2023/05/27 07:51:13;;;;;;;9.07;1.85;;;12.10;99.90;;;;;;5002362;28;20038;-72
2023/05/27 07:53:38;;;;;;;5.63;1.80;;;12.20;99.90;;;;;;5002435;28;20484;-73
2023/05/27 07:56:04;;;;;;;1.90;1.67;;;12.20;99.90;;;;;;5002740;28;20069;-72
2023/05/27 07:58:30;;;;;;;5.13;1.77;;;12.20;99.90;;;;;;4995141;28;20045;-73
2023/05/27 08:00:55;;;;;;;6.28;1.77;;;12.20;99.90;;;;;;5002956;28;20041;-73
2023/05/27 08:03:21;;;;;;;10.35;3.55;;;12.20;99.90;;;;;;5002933;28;20144;-72
2023/05/27 08:05:47;;;;;;;4.32;1.50;;;12.20;99.90;;;;;;5002131;28;20400;-73
2023/05/27 08:08:13;;;;;;;4.13;1.55;;;12.20;99.90;;;;;;5005791;28;20038;-73
2023/05/27 08:10:39;;;;;;;9.05;2.90;;;12.30;99.90;;;;;;5005784;28;20042;-73
2023/05/27 08:13:04;;;;;;;5.82;2.05;;;12.30;99.90;;;;;;5004425;28;20046;-73
2023/05/27 08:15:30;;;;;;;7.22;2.47;;;12.40;99.90;;;;;;5005559;28;20048;-73
2023/05/27 08:17:56;;;;;;;6.20;1.95;;;12.40;99.90;;;;;;5005583;28;20053;-73
2023/05/27 08:20:21;;;;;;;8.90;2.42;;;12.40;99.90;;;;;;5005006;28;20053;-73
2023/05/27 08:22:47;;;;;;;7.78;1.92;;;12.40;99.90;;;;;;5005915;28;20567;-73
2023/05/27 08:25:13;;;;;;;5.78;1.75;;;12.50;99.90;;;;;;5005227;28;20065;-73
2023/05/27 08:28:01;;;;;;;12.20;3.35;;;12.50;99.90;;;;;;4993698;28;20030;-73
2023/05/27 08:30:28;;;;;;;4.95;2.70;;;12.60;99.90;;;;;;4985334;28;20046;-73
2023/05/27 08:32:55;;;;;;;5.40;1.52;;;12.60;99.90;;;;;;5002906;28;20089;-73
2023/05/27 08:35:20;;;;;;;5.65;1.67;;;12.70;99.90;;;;;;5006095;28;20514;-72
2023/05/27 08:37:46;;;;;;;3.55;1.95;;;12.70;99.90;;;;;;5005845;28;20034;-73
2023/05/27 08:40:17;;;;;;;6.85;2.50;;;12.70;99.90;;;;;;5006348;28;20038;-73
2023/05/27 08:42:44;;;;;;;8.88;2.65;;;12.70;99.90;;;;;;4986861;28;20057;-72
2023/05/27 08:45:10;;;;;;;4.85;1.60;;;12.70;99.90;;;;;;4987008;28;20045;-73
2023/05/27 08:47:37;;;;;;;6.95;2.35;;;12.70;99.90;;;;;;5005807;28;20340;-73
2023/05/27 08:50:03;;;;;;;5.03;2.17;;;12.80;99.90;;;;;;4996336;28;20489;-73
2023/05/27 08:52:29;;;;;;;4.43;2.67;;;12.90;99.90;;;;;;4986590;28;20038;-73
2023/05/27 08:54:57;;;;;;;3.17;1.77;;;12.90;99.90;;;;;;4986264;28;20052;-72
2023/05/27 08:57:28;;;;;;;7.32;2.33;;;13.00;99.90;;;;;;4985973;28;20046;-73
2023/05/27 08:59:54;;;;;;;12.35;2.53;;;13.00;99.90;;;;;;4995005;28;20403;-73
2023/05/27 09:02:21;;;;;;;6.22;2.20;;;13.10;99.90;;;;;;4995670;28;20393;-73
2023/05/27 09:04:48;;;;;;;6.35;1.92;;;13.10;99.90;;;;;;4984067;28;20085;-72
2023/05/27 09:07:14;;;;;;;6.38;2.95;;;13.20;99.90;;;;;;4984608;28;20053;-72
2023/05/27 09:09:39;;;;;;;6.75;2.13;;;13.20;99.90;;;;;;4985378;28;20480;-72
2023/05/27 09:12:08;;;;;;;10.02;3.42;;;13.20;99.90;;;;;;5004530;28;20037;-72
2023/05/27 09:14:34;;;;;;;4.68;1.95;;;13.20;99.90;;;;;;5004919;28;20038;-72
2023/05/27 09:17:06;;;;;;;9.55;2.17;;;13.30;99.90;;;;;;5004648;28;20085;-72
2023/05/27 09:19:31;;;;;;;7.78;1.85;;;13.30;99.90;;;;;;5002734;28;20033;-72
2023/05/27 09:21:57;;;;;;;6.72;2.25;;;13.30;99.90;;;;;;5004456;28;20049;-72
2023/05/27 09:24:24;;;;;;;6.43;2.65;;;13.30;99.90;;;;;;5005247;28;20381;-72
2023/05/27 09:26:55;;;;;;;9.38;2.25;;;13.40;99.90;;;;;;4983455;28;20713;-72
2023/05/27 09:29:26;;;;;;;4.40;2.10;;;13.40;99.90;;;;;;5001348;28;20318;-72
2023/05/27 09:31:55;;;;;;;7.05;2.90;;;13.50;99.90;;;;;;5003392;28;20447;-72
2023/05/27 09:34:21;;;;;;;10.70;2.78;;;13.60;99.90;;;;;;4995954;28;20329;-73
2023/05/27 09:36:51;;;;;;;3.53;2.20;;;13.60;99.90;;;;;;4985232;28;20485;-72
2023/05/27 09:39:19;;;;;;;4.68;2.15;;;13.70;99.90;;;;;;5004533;28;20342;-72
2023/05/27 09:41:53;;;;;;;8.10;2.65;;;13.70;99.90;;;;;;5002226;28;20119;-72
2023/05/27 09:44:19;;;;;;;5.80;2.30;;;13.80;99.90;;;;;;4986815;28;20049;-72
2023/05/27 09:46:47;;;;;;;7.05;2.28;;;13.80;99.90;;;;;;4998098;28;20412;-72
2023/05/27 09:49:19;;;;;;;5.68;2.10;;;13.70;99.90;;;;;;5004483;28;20038;-73
2023/05/27 09:51:46;;;;;;;7.20;2.10;;;13.80;99.90;;;;;;5005457;28;20085;-72
2023/05/27 09:54:18;;;;;;;6.03;2.22;;;13.80;99.90;;;;;;5003432;28;20481;-72
2023/05/27 09:56:45;;;;;;;4.95;2.30;;;13.80;99.90;;;;;;5003150;28;20042;-72
2023/05/27 09:59:12;;;;;;;4.90;2.30;;;13.80;99.90;;;;;;5002979;28;20046;-72
2023/05/27 10:01:39;;;;;;;6.57;3.20;;;13.90;99.90;;;;;;4990024;28;20026;-72
2023/05/27 10:04:06;;;;;;;6.57;2.35;;;13.90;99.90;;;;;;4997771;28;20097;-72
2023/05/27 10:06:33;;;;;;;3.53;1.98;;;13.90;99.90;;;;;;5004357;28;20660;-72
2023/05/27 10:09:01;;;;;;;9.10;3.25;;;13.90;99.90;;;;;;5003764;28;20519;-72
2023/05/27 10:11:31;;;;;;;5.72;3.28;;;14.00;99.90;;;;;;4989497;28;20241;-73
2023/05/27 10:13:57;;;;;;;8.00;2.35;;;14.00;99.90;;;;;;4988702;28;20133;-72
2023/05/27 10:16:25;;;;;;;9.70;2.65;;;14.00;99.90;;;;;;4993774;28;20125;-72
2023/05/27 10:18:56;;;;;;;5.82;2.60;;;14.10;99.90;;;;;;4994360;28;20524;-72
2023/05/27 10:21:31;;;;;;;8.82;2.53;;;14.10;99.90;;;;;;5004410;28;20488;-72
2023/05/27 10:23:58;;;;;;;7.43;3.10;;;14.10;99.90;;;;;;4990586;28;20097;-72
2023/05/27 10:26:36;;;;;;;5.80;2.78;;;14.10;99.90;;;;;;4999754;28;20446;-72
2023/05/27 10:29:10;;;;;;;8.35;2.50;;;14.20;99.90;;;;;;5001790;28;20054;-72
2023/05/27 10:31:39;;;;;;;6.00;2.60;;;14.20;99.90;;;;;;4999206;28;20159;-72
2023/05/27 10:34:06;;;;;;;8.38;2.80;;;14.30;99.90;;;;;;4982607;28;20764;-73
2023/05/27 10:36:32;;;;;;;8.60;2.58;;;14.30;99.90;;;;;;4998505;28;20053;-73
2023/05/27 10:39:00;;;;;;;7.63;3.20;;;14.40;99.90;;;;;;5003263;28;20100;-73
2023/05/27 10:41:27;;;;;;;7.00;2.60;;;14.40;99.90;;;;;;5002049;28;20389;-73
2023/05/27 10:43:59;;;;;;;8.93;2.65;;;14.40;99.90;;;;;;4994308;28;20100;-72
2023/05/27 10:46:26;;;;;;;20.60;2.65;;;14.40;99.90;;;;;;5000774;28;20068;-71
2023/05/27 10:48:52;;;;;;;9.18;3.47;;;14.40;99.90;;;;;;5002671;28;20092;-71
2023/05/27 10:51:17;;;;;;;6.38;3.20;;;14.50;99.90;;;;;;5003028;28;20042;-71
2023/05/27 10:53:43;;;;;;;10.32;3.00;;;14.50;99.90;;;;;;4989063;28;20104;-71
2023/05/27 10:56:09;;;;;;;5.50;3.28;;;14.60;99.90;;;;;;4997907;28;20064;-71
2023/05/27 10:58:36;;;;;;;8.23;3.08;;;14.50;99.90;;;;;;5001363;28;20064;-71
2023/05/27 11:01:14;;;;;;;6.45;2.20;;;14.60;99.90;;;;;;4983178;28;20330;-71
2023/05/27 11:03:48;;;;;;;10.07;2.92;;;14.70;99.90;;;;;;4982612;28;20065;-72
2023/05/27 11:06:16;;;;;;;9.20;3.10;;;14.70;99.90;;;;;;4994152;28;20041;-71
2023/05/27 11:08:42;;;;;;;5.70;2.53;;;14.70;99.90;;;;;;5002370;28;20092;-71
2023/05/27 11:11:09;;;;;;;5.07;2.42;;;14.80;99.90;;;;;;5001750;28;20050;-71
2023/05/27 11:13:43;;;;;;;5.25;2.58;;;14.80;99.90;;;;;;5001197;28;20062;-71
2023/05/27 11:16:09;;;;;;;6.10;3.15;;;14.90;99.90;;;;;;5002549;28;20081;-72
2023/05/27 11:18:38;;;;;;;6.95;2.60;;;14.90;99.90;;;;;;5000298;28;20584;-71
2023/05/27 11:21:08;;;;;;;11.20;4.00;;;15.00;99.90;;;;;;4998242;28;20050;-72
2023/05/27 11:23:43;;;;;;;5.18;3.28;;;15.00;99.90;;;;;;4999685;28;20100;-71
2023/05/27 11:26:22;;;;;;;7.22;2.78;;;15.00;99.90;;;;;;4998891;28;20515;-71
2023/05/27 11:28:52;;;;;;;10.25;3.25;;;15.10;99.90;;;;;;4991790;28;20375;-73
2023/05/27 11:31:19;;;;;;;5.70;2.20;;;15.10;99.90;;;;;;4995966;28;20561;-76
2023/05/27 11:33:48;;;;;;;3.70;1.95;;;15.10;99.90;;;;;;4999422;28;20136;-70
2023/05/27 11:36:14;;;;;;;6.75;2.92;;;15.20;99.90;;;;;;4986099;28;20398;-69
2023/05/27 11:38:50;;;;;;;6.75;2.30;;;15.20;99.90;;;;;;4982975;28;20653;-70
2023/05/27 11:41:17;;;;;;;6.30;2.70;;;15.20;99.90;;;;;;4999972;28;20520;-71
2023/05/27 11:44:03;;;;;;;8.98;2.90;;;15.30;99.90;;;;;;5002283;28;20054;-70
2023/05/27 11:46:36;;;;;;;9.05;2.47;;;15.30;99.90;;;;;;4997354;28;20031;-71
2023/05/27 11:49:06;;;;;;;5.80;3.03;;;15.30;99.90;;;;;;5002143;28;20053;-70
2023/05/27 11:51:34;;;;;;;7.57;3.22;;;15.30;99.90;;;;;;5001974;28;20046;-70
2023/05/27 11:54:03;;;;;;;12.95;3.08;;;15.30;99.90;;;;;;5002150;28;20045;-70
2023/05/27 11:56:29;;;;;;;6.63;2.40;;;15.40;99.90;;;;;;4999515;28;20061;-70
2023/05/27 11:58:58;;;;;;;7.90;3.38;;;15.40;99.90;;;;;;4996064;28;20049;-72
2023/05/27 12:01:25;;;;;;;12.23;2.85;;;15.40;99.90;;;;;;5002267;28;20077;-71
2023/05/27 12:03:51;;;;;;;9.27;3.10;;;15.50;99.90;;;;;;5001862;28;20066;-70
2023/05/27 12:06:17;;;;;;;7.72;2.75;;;15.50;99.90;;;;;;4996219;28;20397;-70
2023/05/27 12:08:43;;;;;;;8.45;3.42;;;15.50;99.90;;;;;;4997047;28;20116;-71
2023/05/27 12:11:08;;;;;;;4.50;2.47;;;15.60;99.90;;;;;;4998596;28;20495;-72
2023/05/27 12:13:34;;;;;;;11.38;5.13;;;15.60;99.90;;;;;;4995657;28;20071;-80
2023/05/27 12:16:00;;;;;;;7.13;2.80;;;15.70;99.90;;;;;;4992165;28;20109;-82
2023/05/27 12:18:25;;;;;;;9.70;3.88;;;15.70;99.90;;;;;;4998034;28;20499;-74
2023/05/27 12:20:51;;;;;;;10.80;3.55;;;15.70;99.90;;;;;;5002700;28;20068;-71
2023/05/27 12:23:17;;;;;;;8.77;3.30;;;15.70;99.90;;;;;;4991569;28;20533;-71
2023/05/27 12:25:43;;;;;;;9.52;3.20;;;15.80;99.90;;;;;;4994988;28;20054;-71
2023/05/27 12:28:09;;;;;;;7.47;3.15;;;15.80;99.90;;;;;;4992187;28;20042;-71
2023/05/27 12:30:36;;;;;;;8.32;2.92;;;15.80;99.90;;;;;;4997888;28;20391;-71
2023/05/27 12:33:06;;;;;;;8.27;3.03;;;15.80;99.90;;;;;;5001596;28;20404;-72
2023/05/27 12:35:33;;;;;;;6.57;3.40;;;15.90;99.90;;;;;;5000193;28;20034;-75
2023/05/27 12:37:59;;;;;;;7.60;3.17;;;15.90;99.90;;;;;;5001825;28;20034;-72
2023/05/27 12:40:25;;;;;;;9.43;3.42;;;16.00;99.90;;;;;;5001742;28;20037;-71
2023/05/27 12:42:51;;;;;;;8.88;3.17;;;16.00;99.90;;;;;;4999626;28;20050;-71
2023/05/27 12:45:17;;;;;;;11.38;3.50;;;16.00;99.90;;;;;;5004007;28;20634;-71
2023/05/27 12:47:43;;;;;;;7.25;3.30;;;16.00;99.90;;;;;;4990482;28;20085;-72
2023/05/27 12:50:09;;;;;;;6.18;2.95;;;16.10;99.90;;;;;;4995784;28;20069;-74